createdAt,value
2019-06-08T00:02:14.726Z,17.10
2019-06-08T00:04:43.726Z,17.10
2019-06-08T00:07:13.106Z,17.20
2019-06-08T00:09:42.019Z,17.10
2019-06-08T00:12:12.890Z,17.10
2019-06-08T00:14:41.884Z,17.10
2019-06-08T00:17:26.490Z,17.10
2019-06-08T00:19:41.388Z,17.10
2019-06-08T00:22:10.251Z,17.10
2019-06-08T00:24:39.091Z,17.10
2019-06-08T00:27:07.913Z,17.10
2019-06-08T00:29:36.765Z,17.10
2019-06-08T00:32:05.755Z,17.10
2019-06-08T00:34:34.614Z,17.00
2019-06-08T00:37:03.442Z,17.00
2019-06-08T00:39:32.266Z,17.00
2019-06-08T00:42:01.097Z,16.90
2019-06-08T00:44:29.955Z,16.90
2019-06-08T00:46:58.815Z,16.90
2019-06-08T00:49:29.061Z,16.90
2019-06-08T00:51:58.164Z,16.90
2019-06-08T00:54:27.133Z,16.90
2019-06-08T00:56:56.143Z,16.90
2019-06-08T00:59:26.078Z,16.90
2019-06-08T01:01:55.645Z,16.90
2019-06-08T01:04:24.854Z,16.80
2019-06-08T01:06:54.017Z,16.80
2019-06-08T01:09:24.172Z,16.80
2019-06-08T01:11:53.215Z,16.70
2019-06-08T01:14:22.921Z,16.70
2019-06-08T01:16:51.958Z,16.70
2019-06-08T01:19:21.138Z,16.70
2019-06-08T01:21:50.233Z,16.70
2019-06-08T01:24:19.655Z,16.70
2019-06-08T01:26:48.950Z,16.60
2019-06-08T01:29:18.173Z,16.60
2019-06-08T01:31:47.333Z,16.50
2019-06-08T01:34:16.301Z,16.50
2019-06-08T01:36:45.213Z,16.50
2019-06-08T01:39:14.139Z,16.60
2019-06-08T01:41:43.019Z,16.50
2019-06-08T01:44:11.834Z,16.50
2019-06-08T01:46:40.979Z,16.50
2019-06-08T01:49:10.705Z,16.50
2019-06-08T01:51:39.537Z,16.50
2019-06-08T01:54:08.513Z,16.50
2019-06-08T01:56:37.467Z,16.50
2019-06-08T01:59:06.853Z,16.50
2019-06-08T02:01:36.271Z,16.50
2019-06-08T02:04:05.407Z,16.50
2019-06-08T02:06:34.769Z,16.50
2019-06-08T02:09:06.476Z,16.50
2019-06-08T02:11:35.409Z,16.50
2019-06-08T02:14:05.134Z,16.50
2019-06-08T02:16:35.468Z,16.50
2019-06-08T02:19:04.641Z,16.40
2019-06-08T02:21:34.917Z,16.40
2019-06-08T02:24:04.017Z,16.40
2019-06-08T02:26:35.062Z,16.40
2019-06-08T02:29:03.928Z,16.40
2019-06-08T02:31:34.275Z,16.40
2019-06-08T02:34:03.762Z,16.30
2019-06-08T02:36:33.737Z,16.30
2019-06-08T02:39:04.458Z,16.30
2019-06-08T02:41:35.201Z,16.20
2019-06-08T02:44:05.077Z,16.20
2019-06-08T02:46:35.967Z,16.20
2019-06-08T02:49:05.145Z,16.20
2019-06-08T02:51:36.427Z,16.10
2019-06-08T02:54:05.712Z,16.10
2019-06-08T02:56:36.842Z,16.10
2019-06-08T02:59:07.107Z,16.10
2019-06-08T03:01:38.233Z,16.20
2019-06-08T03:04:06.753Z,16.20
2019-06-08T03:06:39.428Z,16.20
2019-06-08T03:09:08.746Z,16.20
2019-06-08T03:11:39.010Z,16.20
2019-06-08T03:14:08.599Z,16.20
2019-06-08T03:16:40.415Z,16.20
2019-06-08T03:19:20.604Z,16.10
2019-06-08T03:21:40.404Z,16.10
2019-06-08T03:24:09.485Z,16.10
2019-06-08T03:26:39.710Z,16.10
2019-06-08T03:29:09.004Z,16.10
2019-06-08T03:31:45.845Z,16.00
2019-06-08T03:34:09.148Z,16.00
2019-06-08T03:36:46.110Z,16.00
2019-06-08T03:39:08.687Z,15.90
2019-06-08T03:41:38.558Z,15.90
2019-06-08T03:44:08.221Z,15.90
2019-06-08T03:46:38.681Z,15.90
2019-06-08T03:49:07.912Z,15.90
2019-06-08T03:51:40.220Z,15.90
2019-06-08T03:54:07.778Z,15.90
2019-06-08T03:56:38.007Z,15.80
2019-06-08T03:59:07.129Z,15.80
2019-06-08T04:01:37.309Z,15.80
2019-06-08T04:04:06.391Z,15.80
2019-06-08T04:06:35.282Z,15.80
2019-06-08T04:09:05.394Z,15.80
2019-06-08T04:11:34.716Z,15.80
2019-06-08T04:14:05.077Z,15.80
2019-06-08T04:16:34.355Z,15.80
2019-06-08T04:19:03.226Z,15.80
2019-06-08T04:21:32.442Z,15.80
2019-06-08T04:24:01.282Z,15.80
2019-06-08T04:26:30.107Z,15.70
2019-06-08T04:28:58.988Z,15.80
2019-06-08T04:31:27.952Z,15.70
2019-06-08T04:33:56.913Z,15.80
2019-06-08T04:36:25.870Z,15.70
2019-06-08T04:38:54.835Z,15.70
2019-06-08T04:41:23.752Z,15.70
2019-06-08T04:43:52.599Z,15.70
2019-06-08T04:46:21.498Z,15.70
2019-06-08T04:48:50.362Z,15.70
2019-06-08T04:51:19.749Z,15.70
2019-06-08T04:53:49.693Z,15.70
2019-06-08T04:56:18.748Z,15.80
2019-06-08T04:58:48.984Z,15.80
2019-06-08T05:01:18.278Z,15.70
2019-06-08T05:03:48.133Z,15.70
2019-06-08T05:06:18.269Z,15.70
2019-06-08T05:08:47.476Z,15.80
2019-06-08T05:11:16.522Z,15.70
2019-06-08T05:13:45.468Z,15.70
2019-06-08T05:16:14.389Z,15.70
2019-06-08T05:18:43.228Z,15.70
2019-06-08T05:21:12.152Z,15.70
2019-06-08T05:23:41.441Z,15.70
2019-06-08T05:26:10.282Z,15.70
2019-06-08T05:28:39.178Z,15.70
2019-06-08T05:31:08.121Z,15.70
2019-06-08T05:33:36.956Z,15.70
2019-06-08T05:36:05.866Z,15.80
2019-06-08T05:38:35.116Z,15.80
2019-06-08T05:41:04.053Z,15.80
2019-06-08T05:43:32.945Z,15.80
2019-06-08T05:46:01.853Z,15.80
2019-06-08T05:48:30.749Z,15.90
2019-06-08T05:51:03.878Z,15.90
2019-06-08T05:53:30.603Z,15.90
2019-06-08T05:55:59.476Z,15.90
2019-06-08T05:58:28.444Z,15.80
2019-06-08T06:00:57.296Z,15.90
2019-06-08T06:03:26.336Z,15.90
2019-06-08T06:05:55.268Z,15.90
2019-06-08T06:08:24.300Z,16.00
2019-06-08T06:10:53.323Z,16.00
2019-06-08T06:13:22.314Z,16.00
2019-06-08T06:15:51.699Z,16.00
2019-06-08T06:18:20.834Z,16.00
2019-06-08T06:20:49.721Z,16.10
2019-06-08T06:23:19.201Z,16.00
2019-06-08T06:25:49.632Z,16.00
2019-06-08T06:28:18.921Z,16.00
2019-06-08T06:30:48.471Z,16.00
2019-06-08T06:33:18.793Z,16.00
2019-06-08T06:35:47.848Z,15.90
2019-06-08T06:38:16.840Z,16.00
2019-06-08T06:40:45.943Z,16.00
2019-06-08T06:43:15.017Z,16.00
2019-06-08T06:45:44.364Z,16.00
2019-06-08T06:48:13.469Z,16.10
2019-06-08T06:50:42.797Z,16.10
2019-06-08T06:53:11.654Z,16.10
2019-06-08T06:55:40.707Z,16.10
2019-06-08T06:58:09.675Z,16.20
2019-06-08T07:00:39.045Z,16.20
2019-06-08T07:03:08.012Z,16.20
2019-06-08T07:05:37.095Z,16.20
2019-06-08T07:08:06.217Z,16.20
2019-06-08T07:10:35.678Z,16.20
2019-06-08T07:13:04.774Z,16.20
2019-06-08T07:15:41.439Z,16.20
2019-06-08T07:18:04.434Z,16.10
2019-06-08T07:20:33.410Z,16.10
2019-06-08T07:23:02.446Z,16.10
2019-06-08T07:25:31.450Z,16.10
2019-06-08T07:28:00.789Z,16.10
2019-06-08T07:30:29.777Z,16.10
2019-06-08T07:32:59.422Z,16.10
2019-06-08T07:35:28.557Z,16.10
2019-06-08T07:37:59.591Z,16.10
2019-06-08T07:40:28.677Z,16.10
2019-06-08T07:42:57.803Z,16.20
2019-06-08T07:45:26.825Z,16.20
2019-06-08T07:47:56.103Z,16.20
2019-06-08T07:50:25.202Z,16.20
2019-06-08T07:52:54.661Z,16.20
2019-06-08T07:55:23.836Z,16.20
2019-06-08T07:57:53.960Z,16.20
2019-06-08T08:00:23.285Z,16.20
2019-06-08T08:02:52.316Z,16.30
2019-06-08T08:05:21.182Z,16.30
2019-06-08T08:07:50.301Z,16.40
2019-06-08T08:10:19.638Z,16.40
2019-06-08T08:12:49.222Z,16.40
2019-06-08T08:15:19.058Z,16.50
2019-06-08T08:17:49.039Z,16.50
2019-06-08T08:20:18.347Z,16.50
2019-06-08T08:22:49.429Z,16.50
2019-06-08T08:25:18.577Z,16.50
2019-06-08T08:27:47.938Z,16.60
2019-06-08T08:30:20.319Z,16.60
2019-06-08T08:32:51.356Z,16.60
2019-06-08T08:35:21.073Z,16.70
2019-06-08T08:37:53.374Z,16.70
2019-06-08T08:40:20.658Z,16.70
2019-06-08T08:42:50.636Z,16.70
2019-06-08T08:45:20.385Z,16.70
2019-06-08T08:47:50.755Z,16.80
2019-06-08T08:50:20.297Z,16.80
2019-06-08T08:52:50.738Z,16.80
2019-06-08T08:55:20.612Z,16.80
2019-06-08T08:57:51.695Z,16.80
2019-06-08T09:00:20.637Z,16.80
2019-06-08T09:03:05.870Z,16.70
2019-06-08T09:05:20.628Z,16.70
2019-06-08T09:07:49.486Z,16.70
2019-06-08T09:10:18.943Z,16.80
2019-06-08T09:12:48.520Z,16.80
2019-06-08T09:15:19.232Z,16.70
2019-06-08T09:17:48.480Z,16.70
2019-06-08T09:20:19.278Z,16.80
2019-06-08T09:22:56.619Z,16.80
2019-06-08T09:25:19.650Z,16.80
2019-06-08T09:27:48.571Z,16.90
2019-06-08T09:30:18.497Z,16.80
2019-06-08T09:32:47.997Z,16.80
2019-06-08T09:35:18.778Z,16.80
2019-06-08T09:37:48.549Z,16.90
2019-06-08T09:40:17.921Z,16.90
2019-06-08T09:42:46.958Z,17.00
2019-06-08T09:45:18.138Z,17.10
2019-06-08T09:47:47.812Z,17.10
2019-06-08T09:50:18.501Z,17.20
2019-06-08T09:52:48.097Z,17.20
2019-06-08T09:55:18.070Z,17.20
2019-06-08T09:57:48.514Z,17.20
2019-06-08T10:00:21.337Z,17.20
2019-06-08T10:02:48.403Z,17.20
2019-06-08T10:05:18.519Z,17.20
2019-06-08T10:07:48.698Z,17.30
2019-06-08T10:10:18.338Z,17.20
2019-06-08T10:12:48.492Z,17.30
2019-06-08T10:15:18.801Z,17.30
2019-06-08T10:17:47.801Z,17.40
2019-06-08T10:20:18.434Z,17.40
2019-06-08T10:22:49.894Z,17.50
2019-06-08T10:25:18.458Z,17.50
2019-06-08T10:27:47.697Z,17.60
2019-06-08T10:30:18.302Z,17.60
2019-06-08T10:32:50.518Z,17.60
2019-06-08T10:35:21.019Z,17.70
2019-06-08T10:37:51.198Z,17.80
2019-06-08T10:40:20.565Z,17.70
2019-06-08T10:42:49.572Z,17.70
2019-06-08T10:45:18.891Z,17.80
2019-06-08T10:47:48.085Z,17.80
2019-06-08T10:50:19.200Z,17.80
2019-06-08T10:52:48.459Z,17.90
2019-06-08T10:55:18.354Z,18.00
2019-06-08T10:57:47.793Z,18.00
2019-06-08T11:00:24.170Z,18.00
2019-06-08T11:02:52.953Z,18.00
2019-06-08T11:05:21.978Z,18.10
2019-06-08T11:07:51.324Z,18.10
2019-06-08T11:10:20.558Z,18.10
2019-06-08T11:12:49.817Z,18.20
2019-06-08T11:15:19.134Z,18.20
2019-06-08T11:17:47.997Z,18.30
2019-06-08T11:20:17.038Z,18.30
2019-06-08T11:22:49.870Z,18.40
2019-06-08T11:25:19.730Z,18.40
2019-06-08T11:27:48.197Z,18.50
2019-06-08T11:30:23.745Z,18.50
2019-06-08T11:32:48.172Z,18.50
2019-06-08T11:35:18.037Z,18.40
2019-06-08T11:37:48.862Z,18.50
2019-06-08T11:40:20.865Z,18.50
2019-06-08T11:42:49.194Z,18.60
2019-06-08T11:45:20.189Z,18.70
2019-06-08T11:47:49.102Z,18.70
2019-06-08T11:50:25.088Z,18.80
2019-06-08T11:55:19.843Z,18.90
2019-06-08T11:57:49.134Z,19.10
2019-06-08T12:00:31.065Z,19.10
2019-06-08T12:03:00.162Z,19.20
2019-06-08T12:05:29.561Z,19.30
2019-06-08T12:07:58.392Z,19.30
2019-06-08T12:10:28.563Z,19.50
2019-06-08T12:12:57.793Z,19.60
2019-06-08T12:15:28.674Z,19.80
2019-06-08T12:17:58.694Z,19.80
2019-06-08T12:20:28.065Z,19.90
2019-06-08T12:22:57.197Z,19.90
2019-06-08T12:25:26.254Z,19.90
2019-06-08T12:27:55.225Z,20.00
2019-06-08T12:30:26.256Z,20.10
2019-06-08T12:32:54.864Z,20.20
2019-06-08T12:35:23.794Z,20.20
2019-06-08T12:37:52.706Z,20.20
2019-06-08T12:40:22.222Z,20.40
2019-06-08T12:42:51.055Z,20.40
2019-06-08T12:45:20.480Z,20.40
2019-06-08T12:47:49.952Z,20.50
2019-06-08T12:50:20.128Z,20.60
2019-06-08T12:52:49.080Z,20.50
2019-06-08T12:55:24.711Z,20.50
2019-06-08T12:57:51.721Z,20.60
2019-06-08T13:00:21.524Z,20.80
2019-06-08T13:02:50.993Z,20.90
2019-06-08T13:05:22.625Z,21.00
2019-06-08T13:07:50.904Z,21.10
2019-06-08T13:10:23.913Z,21.20
2019-06-08T13:12:50.658Z,21.20
2019-06-08T13:15:21.869Z,21.30
2019-06-08T13:17:50.716Z,21.30
2019-06-08T13:20:22.167Z,21.40
2019-06-08T13:22:51.061Z,21.50
2019-06-08T13:25:36.204Z,21.50
2019-06-08T13:27:50.821Z,21.50
2019-06-08T13:30:25.935Z,21.60
2019-06-08T13:32:50.451Z,21.70
2019-06-08T13:35:22.163Z,21.70
2019-06-08T13:37:50.569Z,21.80
2019-06-08T13:40:21.822Z,21.80
2019-06-08T13:42:51.229Z,21.90
2019-06-08T13:45:22.151Z,21.90
2019-06-08T13:47:51.200Z,21.90
2019-06-08T13:50:22.173Z,22.00
2019-06-08T13:52:51.510Z,22.10
2019-06-08T13:55:36.002Z,22.10
2019-06-08T13:57:51.105Z,22.20
2019-06-08T14:00:32.094Z,22.20
2019-06-08T14:03:01.167Z,22.30
2019-06-08T14:05:30.966Z,22.30
2019-06-08T14:08:00.261Z,22.30
2019-06-08T14:10:34.622Z,22.40
2019-06-08T14:13:04.150Z,22.40
2019-06-08T14:15:33.065Z,22.50
2019-06-08T14:18:02.145Z,22.60
2019-06-08T14:20:34.283Z,22.60
2019-06-08T14:23:01.972Z,22.60
2019-06-08T14:25:46.602Z,22.60
2019-06-08T14:28:01.937Z,22.70
2019-06-08T14:30:33.100Z,22.70
2019-06-08T14:33:01.934Z,22.70
2019-06-08T14:35:30.770Z,22.70
2019-06-08T14:37:59.938Z,22.70
2019-06-08T14:40:32.663Z,22.80
2019-06-08T14:42:59.498Z,22.70
2019-06-08T14:45:30.856Z,22.70
2019-06-08T14:47:59.491Z,22.60
2019-06-08T14:50:30.702Z,22.60
2019-06-08T14:52:59.842Z,22.70
2019-06-08T14:55:32.006Z,22.70
2019-06-08T14:58:00.215Z,22.70
2019-06-08T15:00:29.709Z,22.70
2019-06-08T15:02:59.273Z,22.70
2019-06-08T15:05:30.702Z,22.70
2019-06-08T15:08:01.010Z,22.70
2019-06-08T15:10:31.236Z,22.70
2019-06-08T15:13:00.344Z,22.70
2019-06-08T15:15:32.090Z,22.70
2019-06-08T15:18:00.054Z,22.70
2019-06-08T15:20:30.270Z,22.70
2019-06-08T15:22:59.410Z,22.70
2019-06-08T15:25:30.021Z,22.70
2019-06-08T15:28:01.334Z,22.60
2019-06-08T15:30:31.111Z,22.60
2019-06-08T15:33:00.313Z,22.50
2019-06-08T15:35:29.463Z,22.60
2019-06-08T15:37:58.685Z,22.60
2019-06-08T15:40:27.882Z,22.60
2019-06-08T15:42:58.506Z,22.60
2019-06-08T15:45:30.910Z,22.60
2019-06-08T15:47:58.813Z,22.60
2019-06-08T15:50:28.405Z,22.60
2019-06-08T15:53:00.020Z,22.50
2019-06-08T15:55:31.296Z,22.50
2019-06-08T15:57:59.280Z,22.50
2019-06-08T16:00:31.001Z,22.40
2019-06-08T16:02:59.514Z,22.40
2019-06-08T16:05:29.611Z,22.30
2019-06-08T16:07:58.873Z,22.30
2019-06-08T16:10:28.148Z,22.30
2019-06-08T16:12:57.105Z,22.30
2019-06-08T16:15:26.871Z,22.20
2019-06-08T16:17:56.043Z,22.10
2019-06-08T16:20:25.380Z,22.10
2019-06-08T16:22:54.371Z,22.10
2019-06-08T16:25:23.387Z,22.10
2019-06-08T16:27:52.242Z,22.10
2019-06-08T16:30:21.269Z,22.00
2019-06-08T16:32:50.167Z,22.00
2019-06-08T16:35:19.082Z,22.00
2019-06-08T16:37:47.933Z,21.90
2019-06-08T16:40:17.388Z,21.90
2019-06-08T16:42:46.213Z,21.90
2019-06-08T16:45:15.609Z,21.90
2019-06-08T16:47:44.521Z,21.90
2019-06-08T16:50:24.042Z,21.90
2019-06-08T16:52:44.328Z,21.90
2019-06-08T16:55:13.329Z,21.90
2019-06-08T16:57:42.317Z,21.90
2019-06-08T17:00:30.735Z,21.80
2019-06-08T17:02:42.390Z,21.80
2019-06-08T17:05:11.649Z,21.80
2019-06-08T17:07:40.491Z,21.80
2019-06-08T17:10:09.889Z,21.80
2019-06-08T17:12:39.126Z,21.70
2019-06-08T17:15:08.502Z,21.70
2019-06-08T17:17:38.507Z,21.70
2019-06-08T17:20:07.892Z,21.70
2019-06-08T17:22:38.662Z,21.60
2019-06-08T17:25:08.549Z,21.60
2019-06-08T17:27:38.835Z,21.60
2019-06-08T17:30:09.759Z,21.50
2019-06-08T17:32:40.509Z,21.50
2019-06-08T17:35:09.670Z,21.50
2019-06-08T17:37:39.955Z,21.50
2019-06-08T17:40:09.343Z,21.40
2019-06-08T17:42:39.526Z,21.40
2019-06-08T17:45:08.845Z,21.40
2019-06-08T17:47:38.845Z,21.40
2019-06-08T17:50:08.246Z,21.30
2019-06-08T17:52:37.259Z,21.20
2019-06-08T17:55:06.668Z,21.20
2019-06-08T17:57:45.736Z,21.20
2019-06-08T18:00:07.955Z,21.20
2019-06-08T18:02:39.900Z,21.10
2019-06-08T18:05:08.925Z,21.10
2019-06-08T18:07:39.051Z,21.00
2019-06-08T18:10:09.115Z,21.00
2019-06-08T18:12:41.050Z,20.90
2019-06-08T18:15:09.856Z,20.90
2019-06-08T18:17:41.904Z,20.90
2019-06-08T18:20:10.895Z,20.80
2019-06-08T18:22:42.752Z,20.80
2019-06-08T18:25:10.887Z,20.70
2019-06-08T18:27:42.383Z,20.70
2019-06-08T18:30:12.850Z,20.60
2019-06-08T18:32:44.016Z,20.50
2019-06-08T18:35:13.193Z,20.50
2019-06-08T18:37:42.868Z,20.40
2019-06-08T18:40:17.714Z,20.30
2019-06-08T18:42:48.758Z,20.20
2019-06-08T18:45:18.425Z,20.20
2019-06-08T18:47:48.395Z,20.20
2019-06-08T18:50:18.068Z,20.10
2019-06-08T18:52:49.571Z,20.00
2019-06-08T18:55:18.498Z,20.00
2019-06-08T18:57:49.047Z,19.90
2019-06-08T19:00:18.743Z,19.80
2019-06-08T19:02:50.001Z,19.80
2019-06-08T19:05:21.347Z,19.70
2019-06-08T19:07:50.622Z,19.70
2019-06-08T19:10:31.326Z,19.60
2019-06-08T19:13:00.364Z,19.60
2019-06-08T19:15:33.918Z,19.50
2019-06-08T19:18:02.893Z,19.50
2019-06-08T19:20:31.961Z,19.40
2019-06-08T19:23:00.976Z,19.40
2019-06-08T19:25:30.081Z,19.30
2019-06-08T19:27:58.967Z,19.30
2019-06-08T19:30:28.278Z,19.30
2019-06-08T19:32:57.902Z,19.30
2019-06-08T19:35:27.522Z,19.20
2019-06-08T19:37:58.310Z,19.20
2019-06-08T19:40:27.296Z,19.20
2019-06-08T19:43:00.044Z,19.10
2019-06-08T19:45:27.704Z,19.10
2019-06-08T19:47:57.804Z,19.00
2019-06-08T19:50:28.693Z,18.90
2019-06-08T19:52:58.207Z,18.90
2019-06-08T19:55:27.355Z,18.80
2019-06-08T19:57:57.580Z,18.80
2019-06-08T20:00:28.287Z,18.70
2019-06-08T20:02:58.329Z,18.60
2019-06-08T20:05:28.479Z,18.60
2019-06-08T20:07:57.735Z,18.50
2019-06-08T20:10:28.078Z,18.40
2019-06-08T20:12:57.776Z,18.40
2019-06-08T20:15:26.945Z,18.30
2019-06-08T20:17:57.468Z,18.30
2019-06-08T20:20:27.951Z,18.20
2019-06-08T20:22:58.510Z,18.10
2019-06-08T20:25:27.965Z,18.10
2019-06-08T20:27:58.748Z,18.00
2019-06-08T20:30:28.294Z,18.00
2019-06-08T20:32:57.730Z,17.90
2019-06-08T20:35:28.155Z,17.90
2019-06-08T20:37:57.860Z,17.80
2019-06-08T20:40:28.023Z,17.80
2019-06-08T20:42:57.729Z,17.70
2019-06-08T20:45:28.045Z,17.60
2019-06-08T20:47:58.553Z,17.60
2019-06-08T20:50:27.848Z,17.50
2019-06-08T20:52:57.641Z,17.50
2019-06-08T20:55:28.273Z,17.40
2019-06-08T20:57:57.723Z,17.40
2019-06-08T21:00:26.814Z,17.30
2019-06-08T21:03:02.391Z,17.30
2019-06-08T21:05:27.745Z,17.20
2019-06-08T21:07:59.066Z,17.20
2019-06-08T21:10:28.297Z,17.10
2019-06-08T21:12:58.684Z,17.10
2019-06-08T21:15:28.165Z,17.10
2019-06-08T21:17:57.294Z,17.00
2019-06-08T21:20:28.299Z,17.00
2019-06-08T21:22:59.634Z,16.90
2019-06-08T21:25:28.462Z,16.80
2019-06-08T21:27:58.542Z,16.80
2019-06-08T21:30:28.614Z,16.70
2019-06-08T21:33:00.561Z,16.70
2019-06-08T21:35:28.311Z,16.60
2019-06-08T21:38:00.799Z,16.60
2019-06-08T21:40:28.333Z,16.50
2019-06-08T21:42:59.916Z,16.50
2019-06-08T21:45:27.876Z,16.40
2019-06-08T21:47:59.975Z,16.40
2019-06-08T21:50:27.749Z,16.40
2019-06-08T21:52:59.083Z,16.30
2019-06-08T21:55:27.409Z,16.30
2019-06-08T21:57:59.853Z,16.20
2019-06-08T22:00:39.050Z,16.20
2019-06-08T22:02:58.954Z,16.10
2019-06-08T22:05:28.873Z,16.10
2019-06-08T22:07:59.978Z,16.00
2019-06-08T22:10:28.921Z,16.00
2019-06-08T22:12:59.696Z,16.00
2019-06-08T22:15:28.408Z,15.90
2019-06-08T22:17:59.704Z,15.90
2019-06-08T22:20:27.983Z,15.90
2019-06-08T22:22:59.284Z,15.90
2019-06-08T22:25:27.901Z,15.80
2019-06-08T22:27:58.397Z,15.80
2019-06-08T22:30:38.821Z,15.80
2019-06-08T22:32:58.317Z,15.80
2019-06-08T22:35:27.579Z,15.80
2019-06-08T22:37:58.034Z,15.80
2019-06-08T22:40:28.074Z,15.80
2019-06-08T22:42:59.355Z,15.80
2019-06-08T22:45:28.232Z,15.80
2019-06-08T22:47:59.265Z,15.80
2019-06-08T22:50:28.005Z,15.80
2019-06-08T22:52:59.335Z,15.80
2019-06-08T22:55:27.886Z,15.90
2019-06-08T22:57:59.867Z,15.90
2019-06-08T23:00:28.092Z,15.90
2019-06-08T23:03:01.062Z,15.90
2019-06-08T23:05:28.142Z,15.90
2019-06-08T23:07:59.949Z,15.90
2019-06-08T23:10:28.377Z,15.90
2019-06-08T23:12:59.474Z,15.90
2019-06-08T23:15:27.853Z,15.90
2019-06-08T23:17:58.934Z,15.90
2019-06-08T23:20:27.686Z,15.90
2019-06-08T23:22:58.643Z,16.00
2019-06-08T23:25:27.975Z,16.00
2019-06-08T23:27:58.187Z,16.00
2019-06-08T23:30:27.739Z,16.00
2019-06-08T23:33:00.670Z,16.00
2019-06-08T23:35:27.631Z,16.00
2019-06-08T23:37:56.869Z,16.00
2019-06-08T23:40:27.260Z,16.00
2019-06-08T23:42:58.518Z,16.00
2019-06-08T23:45:27.287Z,16.00
2019-06-08T23:47:58.422Z,16.00
2019-06-08T23:50:27.314Z,16.00
2019-06-08T23:52:56.373Z,16.00
2019-06-08T23:55:27.738Z,16.00
2019-06-08T23:57:56.415Z,16.00
